Flight Track Log - Related Links

Times and Time Zones

All times are in EDT time to prevent confusion due to time zone crossing. See the CNS55 flight status page for this flight to view local times or setup timezone preferences in your user account.

Time Position Orientation Groundspeed Altitude Reporting Facility
EDT Latitude Longitude Course Direction KTS MPH feet Rate Location/Type
Sun 03:35:41 PM 41.0667 -73.6833 56° Northeast 111 128 1,600  Level New York TRACON
Sun 03:36:41 PM 41.0833 -73.6500 56° Northeast 166 191 2,500 500 Climbing New York TRACON
Sun 03:37:41 PM 41.1333 -73.5833 45° Northeast 208 239 2,600 900 Climbing New York TRACON
Sun 03:38:41 PM 41.1667 -73.5333 48° Northeast 183 211 4,300 1,650 Climbing New York TRACON
Sun 03:39:41 PM 41.2000 -73.4833 48° Northeast 182 209 5,900 1,733 Climbing New York TRACON
Sun 03:41:00 PM 41.2381 -73.3905 56° Northeast  Level FlightAware Approximate
Sun 03:41:41 PM 41.2667 -73.4000 56° Northeast 186 214 9,500  Level New York TRACON
Sun 03:42:41 PM 41.3000 -73.3500 48° Northeast 193 222 11,200 1,750 Climbing New York TRACON
Sun 03:43:41 PM 41.3500 -73.2833 45° Northeast 194 223 13,000 1,630 Climbing New York TRACON
Sun 03:44:02 PM 41.3553 -73.2836 358° North 202 232 13,400 1,481 Climbing Boston Center
Sun 03:45:02 PM 41.3953 -73.2258 47° Northeast 207 238 15,000 1,000 Climbing Boston Center
Sun 03:46:02 PM 41.4331 -73.1767 44° Northeast 207 238 15,400 250 Climbing Boston Center
Sun 03:47:02 PM 41.4836 -73.1078 46° Northeast 221 254 15,500 50 Climbing Boston Center
Sun 03:48:02 PM 41.5256 -73.0472 47° Northeast 236 272 15,500  Level Boston Center
Sun 03:49:02 PM 41.5800 -72.9700 47° Northeast 247 284 15,500  Level Boston Center
Sun 03:50:02 PM 41.6261 -72.9094 44° Northeast 247 284 15,500  Level Boston Center
Sun 03:51:02 PM 41.6786 -72.8347 47° Northeast 247 284 15,500  Level Boston Center
Sun 03:52:02 PM 41.7247 -72.7711 46° Northeast 247 284 15,500  Level Boston Center
Sun 03:53:02 PM 41.7769 -72.6961 47° Northeast 247 284 15,500  Level Boston Center
Sun 03:54:02 PM 41.8186 -72.6406 45° Northeast 247 284 15,500  Level Boston Center
Sun 03:55:02 PM 41.8772 -72.5572 47° Northeast 252 290 15,500  Level Boston Center
Sun 03:57:14 PM 41.9753 -72.4178 47° Northeast 247 284 15,500  Level Boston Center
Sun 03:58:14 PM 42.0356 -72.3339 46° Northeast 252 290 15,500  Level Boston Center
Sun 03:59:14 PM 42.0814 -72.2694 46° Northeast 252 290 15,500 -50 Level Boston Center
Sun 04:00:14 PM 42.1356 -72.1936 46° Northeast 252 290 15,400 -50 Descending Boston Center
Sun 04:01:14 PM 42.1792 -72.1292 48° Northeast 252 290 15,400  Level Boston Center
Sun 04:02:14 PM 42.2350 -72.0503 46° Northeast 252 290 15,400  Level Boston Center
Sun 04:03:14 PM 42.2786 -71.9856 48° Northeast 252 290 15,400 100 Level Boston Center
Sun 04:04:14 PM 42.3344 -71.9064 46° Northeast 252 290 15,600 -450 Climbing Boston Center
Sun 04:05:14 PM 42.3842 -71.8386 45° Northeast 252 290 14,500 -1,550 Descending Boston Center
Sun 04:06:14 PM 42.4339 -71.7678 46° Northeast 252 290 12,500 -2,200 Descending Boston Center
Sun 04:07:14 PM 42.4856 -71.6911 48° Northeast 252 290 10,100 -1,850 Descending Boston Center
Sun 04:08:14 PM 42.5331 -71.6231 47° Northeast 252 290 8,800 -1,000 Descending Boston Center
Sun 04:09:14 PM 42.5803 -71.5547 47° Northeast 247 284 8,100 -550 Descending Boston Center
Sun 04:10:14 PM 42.6236 -71.4919 47° Northeast 247 284 7,700 -450 Descending Boston Center
Sun 04:11:14 PM 42.6750 -71.4150 48° Northeast 247 284 7,200 -500 Descending Boston Center
Sun 04:12:14 PM 42.7203 -71.3522 46° Northeast 247 284 6,700 -500 Descending Boston Center
Sun 04:13:14 PM 42.7697 -71.2778 48° Northeast 247 284 6,200 -500 Descending Boston Center
Sun 04:14:14 PM 42.8128 -71.2175 46° Northeast 247 284 5,700 -500 Descending Boston Center
Sun 04:15:14 PM 42.8619 -71.1428 48° Northeast 247 284 5,200 -538 Descending Boston Center
Sun 04:15:32 PM 42.8833 -71.1167 42° Northeast 239 275 5,000 -776 Descending KA90
Sun 04:16:39 PM 42.9167 -71.0500 56° Northeast 226 260 4,100 -703 Descending KA90
Sun 04:17:40 PM 42.9667 -71.0000 36° Northeast 224 258 3,500 -763 Descending KA90
Sun 04:18:37 PM 43.0167 -70.9333 44° Northeast 228 262 2,600 -857 Descending KA90
Sun 04:19:32 PM 43.0500 -70.9000 36° Northeast 192 221 1,900 -606 Descending KA90
Sun 04:20:26 PM 43.0833 -70.9000 360° North 161 185 1,500 -550 Descending KA90
Sun 04:21:32 PM 43.1000 -70.8500 65° Northeast 136 157 800 -636 Descending KA90
Sun 04:26:00 PM 43.0779 -70.8233 236° Southwest  Level Estimated
Sun 04:33:00 PM 43.0779 -70.8233 236° Southwest  Level Estimated
Sun 04:34:00 PM 43.0779 -70.8233 236° Southwest  Level Estimated
Sun 04:35:00 PM 43.0779 -70.8233 236° Southwest  Level Estimated
Sun 04:36:00 PM 43.0779 -70.8233 236° Southwest  Level Estimated
Sun 04:37:00 PM 43.0779 -70.8233 236° Southwest  Level Estimated
Sun 04:38:00 PM 43.0779 -70.8233 236° Southwest  Level Estimated

Login

Don't have an account? Register now (free) for customized features, flight alerts, and more!